Time;durP1;ratioP1;P1;durP2;ratioP2;P2;SDS_P1;SDS_P2;PMS_P1;PMS_P2;Temp;Humidity;BMP_temperature;BMP_pressure;BME280_temperature;BME280_humidity;BME280_pressure;Samples;Min_cycle;Max_cycle;Signal;HPM_P1;HPM_P2
2024/02/21 00:01:47;;;;;;;;;14.00;13.67;;;;;10.90;89.21;101854.25;6319693;22;45295;-85
2024/02/21 00:04:12;;;;;;;;;15.00;12.00;;;;;10.87;88.84;101835.53;6288622;22;46687;-85
2024/02/21 00:06:37;;;;;;;;;17.00;15.00;;;;;10.89;88.94;101832.94;6315948;22;44885;-86
2024/02/21 00:09:03;;;;;;;;;19.00;15.33;;;;;10.89;89.12;101843.56;6289814;22;44848;-85
2024/02/21 00:11:28;;;;;;;;;14.33;13.33;;;;;10.91;89.20;101845.41;6319387;22;45340;-85
2024/02/21 00:13:54;;;;;;;;;14.33;14.00;;;;;10.92;89.27;101855.19;6318704;22;46831;-85
2024/02/21 00:16:19;;;;;;;;;14.00;14.00;;;;;10.89;89.35;101844.47;6317582;22;44739;-86
2024/02/21 00:18:45;;;;;;;;;17.00;14.67;;;;;10.93;89.35;101837.47;6291828;22;44784;-84
2024/02/21 00:21:14;;;;;;;;;12.00;10.67;;;;;10.95;89.15;101827.78;6290142;22;44915;-85
2024/02/21 00:23:40;;;;;;;;;13.33;13.33;;;;;10.89;89.49;101822.28;6267306;22;47203;-85
2024/02/21 00:26:06;;;;;;;;;13.00;13.00;;;;;10.88;89.56;101821.34;6319073;22;44731;-83
2024/02/21 00:28:31;;;;;;;;;13.33;12.33;;;;;10.85;89.42;101826.59;6316803;22;44963;-86
2024/02/21 00:30:56;;;;;;;;;15.00;12.00;;;;;10.83;89.84;101830.97;6289811;22;44950;-84
2024/02/21 00:33:22;;;;;;;;;16.33;12.67;;;;;10.83;89.73;101815.00;6290803;22;47500;-85
2024/02/21 00:35:47;;;;;;;;;17.67;15.00;;;;;10.80;89.72;101810.47;6289921;22;44927;-86
2024/02/21 00:38:12;;;;;;;;;15.00;15.00;;;;;10.80;90.13;101813.13;6317901;22;45365;-86
2024/02/21 00:40:38;;;;;;;;;15.00;14.00;;;;;10.76;90.71;101807.69;6319171;22;44784;-86
2024/02/21 00:43:03;;;;;;;;;10.00;9.00;;;;;10.75;90.62;101808.56;6290169;22;46451;-86
2024/02/21 00:45:29;;;;;;;;;14.67;14.00;;;;;10.76;90.80;101805.03;6289869;22;44784;-86
2024/02/21 00:47:54;;;;;;;;;14.33;12.33;;;;;10.75;90.90;101795.25;6290638;22;45346;-86
2024/02/21 00:50:19;;;;;;;;;13.33;12.67;;;;;10.80;90.99;101793.59;6288769;22;44866;-86
2024/02/21 00:56:07;;;;;;;;;16.67;14.67;;;;;10.86;90.37;101777.81;6317367;22;44798;-84
2024/02/21 00:58:32;;;;;;;;;15.67;13.00;;;;;10.89;90.62;101779.69;6317489;22;45033;-85
2024/02/21 01:00:57;;;;;;;;;12.33;12.33;;;;;10.97;90.47;101767.50;6287974;22;45046;-85
2024/02/21 01:03:26;;;;;;;;;18.67;14.67;;;;;11.15;90.14;101757.38;6313875;22;58214;-87
2024/02/21 01:05:51;;;;;;;;;12.67;12.33;;;;;11.04;89.73;101740.19;6288629;22;44690;-86
2024/02/21 01:08:17;;;;;;;;;12.67;9.67;;;;;10.99;90.26;101734.75;6264012;22;44809;-85
2024/02/21 01:10:43;;;;;;;;;15.00;13.67;;;;;10.98;89.98;101748.00;6289250;22;44724;-87
2024/02/21 01:13:08;;;;;;;;;10.00;10.00;;;;;10.95;90.36;101734.63;6315693;22;45091;-88
2024/02/21 01:15:33;;;;;;;;;14.33;11.67;;;;;10.94;90.62;101754.09;6288320;22;44916;-86
2024/02/21 01:17:59;;;;;;;;;15.00;14.67;;;;;10.96;90.06;101739.97;6317268;22;44830;-85
2024/02/21 01:20:24;;;;;;;;;16.00;15.00;;;;;11.05;90.33;101714.47;6289858;22;45227;-86
2024/02/21 01:22:50;;;;;;;;;11.33;11.33;;;;;11.05;90.18;101728.69;6289543;22;46991;-86
2024/02/21 01:25:15;;;;;;;;;20.67;19.00;;;;;11.01;89.83;101726.81;6288798;22;45374;-85
2024/02/21 01:27:41;;;;;;;;;14.00;14.00;;;;;11.14;89.94;101755.56;6288967;22;45400;-85
2024/02/21 01:30:07;;;;;;;;;19.00;13.00;;;;;11.23;89.93;101744.28;6287846;22;45485;-85
2024/02/21 01:32:33;;;;;;;;;13.33;12.00;;;;;11.22;89.69;101729.16;6314416;22;45544;-85
2024/02/21 01:34:58;;;;;;;;;14.67;12.67;;;;;11.21;89.59;101741.56;6286539;22;44806;-86
2024/02/21 01:37:24;;;;;;;;;15.33;13.00;;;;;11.21;89.60;101736.25;6315762;22;45335;-86
2024/02/21 01:39:52;;;;;;;;;16.00;13.67;;;;;11.23;89.53;101716.72;6288309;22;44903;-86
2024/02/21 01:42:19;;;;;;;;;12.00;12.00;;;;;11.30;89.69;101740.91;6287291;22;47262;-84
2024/02/21 01:44:44;;;;;;;;;13.00;12.00;;;;;11.24;89.57;101724.78;6288180;22;44876;-86
2024/02/21 01:47:10;;;;;;;;;15.67;14.33;;;;;11.30;89.38;101713.38;6288571;22;45480;-86
2024/02/21 01:49:37;;;;;;;;;13.67;13.67;;;;;11.27;89.37;101713.28;6315572;22;44976;-84
2024/02/21 01:52:03;;;;;;;;;10.00;9.67;;;;;11.23;89.29;101706.09;6287754;22;45196;-86
2024/02/21 01:54:28;;;;;;;;;11.67;11.67;;;;;11.20;89.22;101689.16;6316374;22;44762;-86
2024/02/21 01:56:54;;;;;;;;;14.67;14.00;;;;;11.16;89.00;101679.28;6291676;22;44907;-86
2024/02/21 01:59:21;;;;;;;;;8.00;6.67;;;;;11.24;89.31;101687.50;6290750;22;44787;-87
2024/02/21 02:01:47;;;;;;;;;12.33;12.33;;;;;11.23;89.03;101680.38;6316611;22;45397;-87
2024/02/21 02:04:13;;;;;;;;;16.00;10.67;;;;;11.10;89.40;101672.91;6287472;22;45023;-79
2024/02/21 02:06:41;;;;;;;;;13.33;11.33;;;;;11.05;89.48;101659.50;6302572;22;45312;-80
2024/02/21 02:09:07;;;;;;;;;19.33;12.67;;;;;10.88;89.82;101644.81;6286080;22;45343;-85
2024/02/21 02:11:33;;;;;;;;;13.33;13.33;;;;;10.78;90.18;101654.28;6287408;22;46112;-85
2024/02/21 02:13:58;;;;;;;;;15.00;13.00;;;;;10.77;90.40;101665.81;6315130;22;45306;-85
2024/02/21 02:16:24;;;;;;;;;16.67;14.67;;;;;10.76;90.88;101666.66;6287945;22;44943;-84
2024/02/21 02:18:50;;;;;;;;;14.33;14.33;;;;;10.75;91.56;101664.88;6317304;22;45272;-85
2024/02/21 02:21:27;;;;;;;;;13.33;13.00;;;;;10.76;91.88;101664.00;6317449;22;46867;-85
2024/02/21 02:23:52;;;;;;;;;19.33;16.67;;;;;10.59;92.22;101661.75;6316575;22;44740;-84
2024/02/21 02:26:18;;;;;;;;;20.33;19.67;;;;;10.64;92.08;101663.66;6289119;22;44757;-85
2024/02/21 02:28:43;;;;;;;;;14.67;14.00;;;;;10.59;92.33;101648.47;6317894;22;44656;-85
2024/02/21 02:31:09;;;;;;;;;18.67;13.67;;;;;10.52;93.05;101635.88;6317314;22;44949;-85
2024/02/21 02:33:34;;;;;;;;;18.67;16.33;;;;;10.58;92.73;101656.38;6287999;22;44693;-85
2024/02/21 02:35:59;;;;;;;;;17.00;16.00;;;;;10.55;92.58;101646.56;6287113;22;45247;-84
2024/02/21 02:38:26;;;;;;;;;20.00;20.00;;;;;10.63;92.74;101635.25;6265456;22;44985;-86
2024/02/21 02:40:52;;;;;;;;;23.67;22.33;;;;;10.78;91.87;101627.69;6291512;22;47675;-86
2024/02/21 02:43:17;;;;;;;;;21.00;15.00;;;;;10.62;92.13;101626.34;6285364;22;45391;-84
2024/02/21 02:45:42;;;;;;;;;18.67;15.00;;;;;10.64;92.34;101629.06;6310522;22;45660;-84
2024/02/21 02:48:08;;;;;;;;;22.33;20.00;;;;;10.62;92.08;101621.03;6309819;22;45440;-84
2024/02/21 02:50:33;;;;;;;;;20.33;15.67;;;;;10.64;92.11;101614.00;6284511;22;47116;-84
2024/02/21 02:52:58;;;;;;;;;25.00;23.00;;;;;10.65;92.24;101604.28;6315420;22;44895;-84
2024/02/21 02:55:25;;;;;;;;;16.33;16.33;;;;;10.61;92.33;101590.88;6282378;22;45481;-84
2024/02/21 02:57:51;;;;;;;;;23.33;21.67;;;;;10.53;92.48;101579.13;6315968;22;45244;-84
2024/02/21 03:00:17;;;;;;;;;20.33;20.33;;;;;10.63;92.56;101587.38;6313523;22;45346;-84
2024/02/21 03:02:45;;;;;;;;;17.00;15.00;;;;;10.71;92.51;101580.50;6279775;22;45338;-84
2024/02/21 03:05:15;;;;;;;;;22.67;20.00;;;;;10.75;92.34;101574.41;6311520;22;44884;-84
2024/02/21 03:07:43;;;;;;;;;19.67;16.67;;;;;10.76;92.38;101577.09;6311001;22;45736;-84
2024/02/21 03:10:09;;;;;;;;;18.33;15.33;;;;;10.73;92.67;101573.47;6311755;22;45329;-84
2024/02/21 03:12:34;;;;;;;;;18.33;15.33;;;;;10.73;92.30;101560.16;6312617;22;45284;-84
2024/02/21 03:14:59;;;;;;;;;14.33;14.33;;;;;10.73;92.38;101545.09;6282944;22;45231;-84
2024/02/21 03:17:27;;;;;;;;;20.00;17.67;;;;;10.69;92.86;101539.66;6307393;22;44927;-84
2024/02/21 03:23:14;;;;;;;;;19.67;19.33;;;;;10.59;93.08;101531.44;6313760;22;45466;-84
2024/02/21 03:25:40;;;;;;;;;20.33;19.00;;;;;10.53;92.83;101536.59;6311605;22;44939;-85
2024/02/21 03:28:07;;;;;;;;;24.33;20.33;;;;;10.54;93.21;101522.44;6311830;22;45291;-84
2024/02/21 03:30:33;;;;;;;;;19.00;17.33;;;;;10.48;93.53;101516.91;6312318;22;45475;-84
2024/02/21 03:32:59;;;;;;;;;22.67;19.33;;;;;10.42;93.41;101511.44;6280920;22;45483;-84
2024/02/21 03:35:26;;;;;;;;;24.33;18.67;;;;;10.42;93.91;101511.44;6313187;22;45329;-84
2024/02/21 03:37:51;;;;;;;;;22.67;22.33;;;;;10.39;93.79;101519.34;6286413;22;45335;-84
2024/02/21 03:40:17;;;;;;;;;16.67;16.67;;;;;10.41;93.81;101531.81;6313865;22;45262;-84
2024/02/21 03:42:42;;;;;;;;;20.33;19.67;;;;;10.44;93.74;101512.38;6314033;22;45179;-84
2024/02/21 03:45:11;;;;;;;;;21.67;18.67;;;;;10.46;93.93;101526.63;6311580;22;45328;-84
2024/02/21 03:47:39;;;;;;;;;18.33;16.67;;;;;10.47;93.74;101540.84;6285138;22;45523;-84
2024/02/21 03:50:06;;;;;;;;;20.00;17.33;;;;;10.59;93.50;101530.53;6285263;22;47004;-84
2024/02/21 03:52:31;;;;;;;;;23.67;21.00;;;;;10.61;93.02;101542.13;6312528;22;45283;-84
2024/02/21 03:54:57;;;;;;;;;20.33;18.33;;;;;10.56;92.88;101527.78;6283471;22;45386;-84
2024/02/21 03:57:23;;;;;;;;;21.33;19.00;;;;;10.65;92.84;101532.47;6280395;22;45319;-84
2024/02/21 03:59:52;;;;;;;;;16.00;16.00;;;;;10.70;92.95;101514.84;6278916;22;47339;-85
2024/02/21 04:02:17;;;;;;;;;20.67;18.67;;;;;10.61;92.58;101526.16;6306249;22;45516;-84
2024/02/21 04:04:46;;;;;;;;;16.00;16.00;;;;;10.63;92.74;101520.88;6307485;22;45079;-84
2024/02/21 04:07:13;;;;;;;;;21.00;19.67;;;;;10.71;92.37;101521.97;6309074;22;45285;-84
2024/02/21 04:09:38;;;;;;;;;20.00;20.00;;;;;10.70;92.40;101518.41;6307549;22;46702;-84
2024/02/21 04:12:04;;;;;;;;;20.00;19.00;;;;;10.65;92.53;101504.09;6309202;22;45310;-84
2024/02/21 04:14:29;;;;;;;;;18.33;16.33;;;;;10.61;92.36;101494.22;6310092;22;45727;-84
2024/02/21 04:16:54;;;;;;;;;16.33;14.33;;;;;10.61;92.61;101500.44;6310087;22;45334;-84
2024/02/21 04:19:20;;;;;;;;;18.67;15.67;;;;;10.61;92.94;101486.25;6283136;22;47697;-84
2024/02/21 04:21:45;;;;;;;;;22.67;15.00;;;;;10.50;92.69;101467.38;6280904;22;45463;-84
2024/02/21 04:24:10;;;;;;;;;17.00;16.67;;;;;10.46;93.09;101475.19;6282507;22;45371;-84
2024/02/21 04:26:36;;;;;;;;;19.00;18.33;;;;;10.52;93.36;101502.88;6310180;22;44865;-84
2024/02/21 04:29:01;;;;;;;;;23.00;20.00;;;;;10.54;93.22;101501.16;6280610;22;45019;-84
2024/02/21 04:31:27;;;;;;;;;20.33;19.00;;;;;10.56;93.13;101482.56;6280960;22;45429;-84
2024/02/21 04:33:52;;;;;;;;;19.00;15.33;;;;;10.56;93.33;101472.84;6281475;22;45039;-84
2024/02/21 04:36:18;;;;;;;;;16.33;16.33;;;;;10.50;93.53;101443.44;6280407;22;44985;-84
2024/02/21 04:38:43;;;;;;;;;23.00;19.00;;;;;10.40;93.91;101433.38;6310132;22;45404;-84
2024/02/21 04:41:09;;;;;;;;;27.00;19.33;;;;;10.42;94.05;101479.53;6283376;22;45482;-84
2024/02/21 04:43:34;;;;;;;;;15.00;14.67;;;;;10.33;93.62;101452.72;6283703;22;45359;-84
2024/02/21 04:46:00;;;;;;;;;18.00;18.00;;;;;10.53;93.42;101472.75;6310004;22;45429;-84
2024/02/21 04:48:32;;;;;;;;;14.67;14.00;;;;;10.37;93.45;101452.81;6311381;22;45515;-84
2024/02/21 04:50:57;;;;;;;;;19.67;19.00;;;;;10.51;93.43;101495.75;6310348;22;45354;-84
2024/02/21 04:53:22;;;;;;;;;20.67;20.67;;;;;10.46;93.25;101460.13;6312179;22;45837;-84
2024/02/21 04:55:48;;;;;;;;;19.33;17.33;;;;;10.50;93.39;101483.31;6308007;22;45369;-84
2024/02/21 04:58:13;;;;;;;;;17.33;17.33;;;;;10.49;93.53;101478.84;6311988;22;46277;-84
2024/02/21 05:00:45;;;;;;;;;8.67;8.00;;;;;10.50;93.81;101446.09;6284262;22;45450;-84
2024/02/21 05:03:11;;;;;;;;;17.00;12.00;;;;;10.42;94.06;101442.31;6312374;22;45467;-84
2024/02/21 05:05:36;;;;;;;;;13.00;9.00;;;;;10.38;94.44;101445.75;6311668;22;45357;-84
2024/02/21 05:08:02;;;;;;;;;17.33;15.67;;;;;10.36;94.53;101452.78;6283814;22;47262;-84
2024/02/21 05:10:27;;;;;;;;;20.00;17.00;;;;;10.36;94.48;101447.47;6282224;22;45454;-84
2024/02/21 05:12:52;;;;;;;;;23.00;13.33;;;;;10.32;94.84;101440.28;6309634;22;45338;-84
2024/02/21 05:15:18;;;;;;;;;17.67;14.67;;;;;10.32;95.00;101445.59;6310969;22;45441;-84
2024/02/21 05:17:43;;;;;;;;;14.67;14.67;;;;;10.29;95.06;101434.84;6282916;22;47131;-84
2024/02/21 05:20:09;;;;;;;;;21.00;19.67;;;;;10.29;95.09;101430.44;6283398;22;45766;-84
2024/02/21 05:22:34;;;;;;;;;18.67;15.67;;;;;10.29;95.64;101432.19;6283648;22;45437;-84
2024/02/21 05:25:00;;;;;;;;;18.33;17.33;;;;;10.24;95.05;101421.44;6310703;22;45315;-84
2024/02/21 05:27:25;;;;;;;;;17.00;16.00;;;;;10.26;95.60;101419.72;6282725;22;46814;-84
2024/02/21 05:29:51;;;;;;;;;15.67;15.67;;;;;10.26;95.56;101425.03;6309210;22;45281;-84
2024/02/21 05:32:16;;;;;;;;;21.00;18.00;;;;;10.24;95.70;101404.56;6280338;22;45536;-84
2024/02/21 05:34:42;;;;;;;;;19.33;16.67;;;;;10.21;95.87;101395.66;6308322;22;45295;-84
2024/02/21 05:37:07;;;;;;;;;20.33;19.00;;;;;10.19;96.20;101402.69;6308114;22;45334;-84
2024/02/21 05:39:32;;;;;;;;;17.00;17.00;;;;;10.24;96.27;101410.81;6310391;22;44716;-84
2024/02/21 05:41:58;;;;;;;;;21.33;16.67;;;;;10.24;96.22;101391.28;6283298;22;45234;-85
2024/02/21 05:44:23;;;;;;;;;18.67;18.67;;;;;10.24;96.29;101388.63;6312075;22;45423;-84
2024/02/21 05:46:49;;;;;;;;;22.67;20.33;;;;;10.20;96.49;101387.66;6313057;22;45217;-85
2024/02/21 05:49:14;;;;;;;;;22.33;20.00;;;;;10.25;96.57;101396.66;6310558;22;44716;-84
2024/02/21 05:51:39;;;;;;;;;22.33;18.00;;;;;10.24;96.48;101394.88;6283847;22;45297;-85
2024/02/21 05:54:07;;;;;;;;;17.67;16.00;;;;;10.25;96.25;101393.97;6282882;22;45647;-84
2024/02/21 05:56:32;;;;;;;;;20.33;16.67;;;;;10.23;96.76;101392.16;6285116;22;47292;-84
2024/02/21 05:58:59;;;;;;;;;20.00;18.00;;;;;10.19;96.31;101389.41;6311256;22;45437;-84
2024/02/21 06:01:25;;;;;;;;;21.67;20.00;;;;;10.29;96.34;101389.66;6284913;22;45318;-83
2024/02/21 06:03:50;;;;;;;;;17.67;17.67;;;;;10.28;96.58;101390.50;6308832;22;45340;-85
2024/02/21 06:06:16;;;;;;;;;15.00;15.00;;;;;10.29;96.77;101382.56;6309604;22;46636;-84
2024/02/21 06:08:41;;;;;;;;;18.00;16.33;;;;;10.28;96.24;101369.22;6284685;22;45257;-84
2024/02/21 06:11:07;;;;;;;;;18.67;17.00;;;;;10.30;97.13;101356.91;6316887;22;45293;-85
2024/02/21 06:13:32;;;;;;;;;17.00;15.67;;;;;10.27;97.34;101324.91;6289441;22;45816;-84
2024/02/21 06:15:57;;;;;;;;;16.33;16.33;;;;;10.24;97.38;101322.16;6287459;22;47431;-84
2024/02/21 06:18:23;;;;;;;;;15.33;15.00;;;;;10.25;97.70;101331.94;6286655;22;45508;-85
2024/02/21 06:20:48;;;;;;;;;18.67;17.00;;;;;10.27;97.53;101335.56;6312956;22;45245;-84
2024/02/21 06:23:16;;;;;;;;;21.00;19.00;;;;;10.39;96.88;101331.44;6313257;22;45303;-86
2024/02/21 06:25:42;;;;;;;;;14.00;12.33;;;;;10.41;97.02;101347.44;6285062;22;47074;-84
2024/02/21 06:28:08;;;;;;;;;19.33;18.00;;;;;10.40;96.29;101335.00;6281759;22;44853;-84
2024/02/21 06:30:34;;;;;;;;;22.33;19.33;;;;;10.46;97.08;101332.50;6309034;22;44975;-85
2024/02/21 06:32:59;;;;;;;;;22.67;18.33;;;;;10.36;96.80;101346.44;6308091;22;45284;-84
2024/02/21 06:35:28;;;;;;;;;17.33;16.67;;;;;10.45;97.25;101330.72;6285021;22;46893;-84
2024/02/21 06:37:54;;;;;;;;;16.00;13.67;;;;;10.41;96.88;101328.84;6314123;22;45280;-84
2024/02/21 06:40:22;;;;;;;;;13.00;12.67;;;;;10.48;97.18;101336.09;6311791;22;44780;-84
2024/02/21 06:42:51;;;;;;;;;18.33;15.67;;;;;10.48;97.33;101320.13;6285329;22;45516;-84
2024/02/21 06:45:17;;;;;;;;;19.00;16.33;;;;;10.46;97.46;101332.50;6284614;22;47040;-84
2024/02/21 06:47:42;;;;;;;;;18.33;18.00;;;;;10.46;98.37;101310.31;6312460;22;45192;-85
2024/02/21 06:50:09;;;;;;;;;12.00;9.67;;;;;10.39;98.08;101319.94;6314420;22;45643;-84
2024/02/21 06:52:34;;;;;;;;;17.33;15.00;;;;;10.37;98.11;101314.56;6288770;22;44939;-84
2024/02/21 06:55:00;;;;;;;;;15.33;13.67;;;;;10.51;97.62;101322.88;6314562;22;46344;-85
2024/02/21 06:57:29;;;;;;;;;16.67;15.00;;;;;10.41;97.31;101300.47;6286716;22;45723;-85
2024/02/21 06:59:54;;;;;;;;;15.33;14.00;;;;;10.57;97.11;101303.50;6285112;22;44910;-86
2024/02/21 07:02:19;;;;;;;;;4.67;4.67;;;;;10.50;96.92;101289.19;6311156;22;45354;-85
2024/02/21 07:04:45;;;;;;;;;9.67;9.67;;;;;10.58;96.46;101284.00;6280442;22;46816;-85
2024/02/21 07:07:10;;;;;;;;;13.67;10.67;;;;;10.56;96.68;101283.06;6282025;22;45287;-85
2024/02/21 07:09:36;;;;;;;;;13.33;12.00;;;;;10.51;96.29;101275.00;6312356;22;45273;-85
2024/02/21 07:12:01;;;;;;;;;7.33;7.33;;;;;10.55;96.12;101268.88;6282525;22;44909;-84
2024/02/21 07:14:32;;;;;;;;;14.67;12.67;;;;;10.70;95.69;101280.75;6283406;22;47181;-84
2024/02/21 07:16:57;;;;;;;;;9.67;9.67;;;;;10.58;94.99;101268.97;6282215;22;45341;-85
2024/02/21 07:19:23;;;;;;;;;12.67;12.67;;;;;10.61;95.06;101287.66;6281677;22;45552;-85
2024/02/21 07:21:48;;;;;;;;;12.00;8.00;;;;;10.62;94.54;101296.50;6312460;22;45382;-85
2024/02/21 07:24:16;;;;;;;;;11.33;9.00;;;;;10.60;94.63;101293.84;6309720;22;45093;-85
2024/02/21 07:26:45;;;;;;;;;7.33;6.00;;;;;10.67;94.34;101308.19;6312384;22;45307;-85
2024/02/21 07:29:14;;;;;;;;;9.00;9.00;;;;;10.69;93.90;101309.09;6286792;22;45276;-85
2024/02/21 07:31:46;;;;;;;;;11.33;11.33;;;;;10.74;94.02;101301.22;6310483;22;45504;-85
2024/02/21 07:34:11;;;;;;;;;12.33;11.00;;;;;10.73;94.21;101320.72;6309178;22;45359;-85
2024/02/21 07:36:38;;;;;;;;;14.00;12.33;;;;;10.77;93.99;101306.63;6282279;22;45249;-85
2024/02/21 07:39:04;;;;;;;;;12.00;9.00;;;;;10.75;93.47;101303.91;6281595;22;45376;-84
2024/02/21 07:41:30;;;;;;;;;7.00;6.67;;;;;10.78;93.19;101297.75;6284865;22;45477;-83
2024/02/21 07:43:56;;;;;;;;;13.00;10.00;;;;;10.79;93.44;101299.56;6283948;22;47422;-85
2024/02/21 07:46:21;;;;;;;;;12.00;12.00;;;;;10.74;93.06;101283.47;6312256;22;45330;-85
2024/02/21 07:48:47;;;;;;;;;10.00;8.67;;;;;10.82;92.67;101281.88;6311231;22;44786;-85
2024/02/21 07:51:12;;;;;;;;;8.00;8.00;;;;;10.87;92.57;101292.66;6313752;22;45267;-85
2024/02/21 07:53:44;;;;;;;;;10.67;9.00;;;;;11.02;92.45;101289.41;6313255;22;45350;-84
2024/02/21 07:56:11;;;;;;;;;17.33;11.33;;;;;10.99;92.04;101294.69;6311306;22;45723;-85
2024/02/21 07:58:36;;;;;;;;;10.00;8.33;;;;;10.92;92.00;101275.00;6316146;22;44849;-85
2024/02/21 08:01:01;;;;;;;;;11.00;10.00;;;;;10.87;91.47;101260.72;6286913;22;44740;-84
2024/02/21 08:03:27;;;;;;;;;10.00;9.67;;;;;10.95;91.59;101275.09;6311228;22;45533;-85
2024/02/21 08:05:52;;;;;;;;;10.00;10.00;;;;;10.97;90.91;101273.34;6322352;22;45215;-85
2024/02/21 08:08:20;;;;;;;;;11.00;10.00;;;;;10.98;91.32;101271.59;6314632;22;45288;-85
2024/02/21 08:10:46;;;;;;;;;13.33;10.00;;;;;10.95;90.85;101247.59;6290252;22;45722;-84
2024/02/21 08:13:11;;;;;;;;;15.00;10.00;;;;;10.91;90.97;101243.97;6285657;22;46622;-85
2024/02/21 08:15:39;;;;;;;;;11.67;11.67;;;;;10.95;91.12;101236.94;6283801;22;45456;-85
2024/02/21 08:18:08;;;;;;;;;13.00;11.33;;;;;10.91;90.73;101206.69;6312845;22;45303;-86
2024/02/21 08:20:34;;;;;;;;;12.00;12.00;;;;;10.95;91.01;101234.28;6286768;22;44802;-85
2024/02/21 08:22:59;;;;;;;;;12.67;8.33;;;;;10.84;90.96;101218.06;6289403;22;47199;-84
2024/02/21 08:25:25;;;;;;;;;14.33;13.67;;;;;10.93;90.87;101220.03;6291636;22;45545;-85
2024/02/21 08:27:58;;;;;;;;;9.67;9.67;;;;;10.84;90.92;101204.75;6328510;22;44801;-85
2024/02/21 08:30:23;;;;;;;;;15.00;13.33;;;;;11.00;90.99;101229.94;6297895;22;44808;-86
2024/02/21 08:32:49;;;;;;;;;13.00;13.00;;;;;10.87;91.33;101199.53;6294100;22;45232;-85
2024/02/21 08:35:23;;;;;;;;;13.67;13.00;;;;;10.95;90.75;101189.94;6317952;22;45246;-86
2024/02/21 08:37:49;;;;;;;;;13.00;13.00;;;;;11.07;90.54;101205.25;6267533;22;46243;-84
2024/02/21 08:40:17;;;;;;;;;14.33;12.67;;;;;10.88;89.98;101172.03;6267933;22;44884;-86
2024/02/21 08:42:43;;;;;;;;;12.33;12.33;;;;;11.08;90.04;101195.50;6260577;22;47207;-86
2024/02/21 08:45:10;;;;;;;;;11.33;11.33;;;;;11.12;90.32;101178.72;6261954;22;45458;-85
2024/02/21 08:47:36;;;;;;;;;14.00;11.33;;;;;11.22;90.32;101207.28;6264198;22;44730;-85
2024/02/21 08:53:23;;;;;;;;;13.33;10.00;;;;;11.24;89.70;101202.00;6284661;22;45332;-86
2024/02/21 08:56:20;;;;;;;;;13.00;11.67;;;;;11.24;89.68;101170.94;6263461;22;45271;-87
2024/02/21 08:58:51;;;;;;;;;14.00;10.00;;;;;11.34;89.30;101188.88;6265080;22;45214;-85
2024/02/21 09:01:20;;;;;;;;;13.33;13.33;;;;;11.28;88.95;101146.16;6259852;22;44929;-82
2024/02/21 09:03:53;;;;;;;;;9.00;9.00;;;;;11.48;89.24;101169.59;6266835;22;47299;-85
2024/02/21 09:08:56;;;;;;;;;17.33;11.67;;;;;11.57;88.21;101153.75;6294898;22;44872;-84
2024/02/21 09:11:22;;;;;;;;;11.33;9.00;;;;;11.53;88.34;101131.53;6266989;22;45702;-86
2024/02/21 09:13:47;;;;;;;;;11.00;11.00;;;;;11.62;88.52;101104.13;6260538;22;45171;-85
2024/02/21 09:16:13;;;;;;;;;11.67;11.67;;;;;11.96;88.42;101144.66;6265500;22;45317;-85
2024/02/21 09:18:38;;;;;;;;;11.67;11.67;;;;;12.01;87.39;101127.81;6293242;22;45238;-84
2024/02/21 09:23:58;;;;;;;;;8.67;8.67;;;;;12.12;86.38;101088.00;6267462;22;45807;-84
2024/02/21 09:26:27;;;;;;;;;8.67;8.67;;;;;12.42;85.74;101115.91;6290689;22;44735;-84
2024/02/21 09:36:41;;;;;;;;;11.00;9.00;;;;;12.38;83.50;101098.09;6319514;22;45412;-86
2024/02/21 09:39:11;;;;;;;;;10.67;10.00;;;;;12.30;83.70;101070.44;6291909;22;44981;-85
2024/02/21 09:41:52;;;;;;;;;9.00;9.00;;;;;12.21;83.35;101052.56;6291997;22;45568;-85
2024/02/21 09:44:19;;;;;;;;;11.33;8.33;;;;;12.53;83.64;101103.63;6290297;22;47144;-86
2024/02/21 09:47:39;;;;;;;;;9.67;9.67;;;;;12.71;82.92;101094.03;6322275;22;45323;-86
2024/02/21 09:50:42;;;;;;;;;9.33;9.33;;;;;12.55;83.20;101061.84;6101073;23;45013;-87
2024/02/21 09:56:23;;;;;;;;;12.33;12.33;;;;;12.76;82.67;101100.31;6110253;23;45447;-85
2024/02/21 10:04:38;;;;;;;;;11.00;11.00;;;;;12.85;82.01;101047.03;6283853;22;45298;-85
2024/02/21 10:10:46;;;;;;;;;9.67;9.67;;;;;13.23;81.12;101051.81;6252777;22;45796;-86
2024/02/21 10:13:38;;;;;;;;;14.67;12.67;;;;;13.26;81.03;101040.25;6316438;22;45562;-85
2024/02/21 10:16:13;;;;;;;;;8.33;8.00;;;;;13.20;81.24;101017.06;6282728;22;45467;-85
2024/02/21 10:33:20;;;;;;;;;9.00;9.00;;;;;13.71;78.42;100999.59;5985065;23;45447;-85
2024/02/21 10:36:52;;;;;;;;;;;;;;;;;;;;;
2024/02/21 10:40:30;;;;;;;;;7.33;7.00;;;;;13.77;79.12;100969.34;5981965;23;68008;-87
2024/02/21 10:43:23;;;;;;;;;9.00;8.00;;;;;13.80;78.66;100932.84;5877676;24;45351;-88
2024/02/21 10:53:53;;;;;;;;;;;;;;;;;;;;;
2024/02/21 11:00:29;;;;;;;;;7.00;7.00;;;;;13.91;76.36;100922.16;6006583;23;45895;-85
2024/02/21 11:06:24;;;;;;;;;5.67;5.00;;;;;13.99;76.63;100917.75;5983382;23;45432;-86
2024/02/21 11:09:25;;;;;;;;;12.33;9.33;;;;;14.18;75.90;100942.78;6038442;23;45281;-85
2024/02/21 11:12:30;;;;;;;;;;;;;;;;;;;;;
2024/02/21 11:15:49;;;;;;;;;9.33;6.67;;;;;14.18;76.21;100910.66;6035973;23;73579;-86
2024/02/21 11:21:56;;;;;;;;;11.67;10.67;;;;;13.97;76.55;100883.88;6042615;23;45492;-84
2024/02/21 11:24:40;;;;;;;;;8.33;8.00;;;;;14.03;76.57;100859.81;6034494;23;46946;-85
2024/02/21 11:27:26;;;;;;;;;10.00;9.00;;;;;14.34;75.77;100891.94;6034259;23;44908;-84
2024/02/21 11:30:51;;;;;;;;;12.67;11.00;;;;;14.14;75.37;100852.72;6140501;23;45308;-82
2024/02/21 11:37:39;;;;;;;;;;;;;;;;;;;;;
2024/02/21 11:50:47;;;;;;;;;;;;;;;;;;;;;
2024/02/21 11:53:13;;;;;;;;;8.00;8.00;;;;;14.29;74.58;100832.22;6033306;23;72086;-82
2024/02/21 11:59:06;;;;;;;;;6.33;5.33;;;;;14.71;74.25;100830.44;6093964;23;45508;-82
2024/02/21 12:02:14;;;;;;;;;9.00;6.67;;;;;14.78;73.92;100833.13;6068572;23;46375;-81
2024/02/21 12:08:34;;;;;;;;;12.00;9.00;;;;;14.70;72.88;100805.44;6070248;23;45384;-79
2024/02/21 12:10:54;;;;;;;;;13.33;10.67;;;;;14.64;72.90;100793.84;6105549;23;45402;-81
2024/02/21 12:13:37;;;;;;;;;10.33;6.67;;;;;14.69;73.02;100795.63;6211253;22;46640;-81
2024/02/21 12:16:59;;;;;;;;;6.00;6.00;;;;;14.69;72.89;100787.59;6251971;22;45328;-80
2024/02/21 12:19:25;;;;;;;;;10.33;8.67;;;;;14.60;72.60;100761.75;6250694;22;45396;-77
2024/02/21 12:21:53;;;;;;;;;9.00;5.00;;;;;14.64;73.02;100775.13;6255083;22;44815;-78
2024/02/21 12:25:31;;;;;;;;;7.67;7.67;;;;;14.76;72.64;100761.69;6258084;22;47517;-80
2024/02/21 12:32:21;;;;;;;;;7.00;6.67;;;;;14.85;72.37;100731.34;6134406;23;45731;-82
2024/02/21 12:35:03;;;;;;;;;7.00;7.00;;;;;14.92;72.56;100720.59;6108921;23;44897;-79
2024/02/21 12:38:25;;;;;;;;;;;;;;;;;;;;;
2024/02/21 12:41:35;;;;;;;;;;;;;;;;;;;;;
2024/02/21 12:44:09;;;;;;;;;4.67;4.67;;;;;14.47;72.00;100666.31;6121900;23;68689;-77
2024/02/21 12:46:35;;;;;;;;;6.67;6.33;;;;;14.62;72.61;100713.56;6098182;23;45270;-78
2024/02/21 12:52:48;;;;;;;;;5.67;5.67;;;;;14.67;73.03;100692.16;6122367;23;45199;-78
2024/02/21 12:55:24;;;;;;;;;10.67;10.67;;;;;14.52;74.20;100656.47;6098173;23;45339;-80
2024/02/21 12:57:50;;;;;;;;;5.67;5.00;;;;;14.52;73.14;100656.47;6122941;23;45485;-77
2024/02/21 13:00:19;;;;;;;;;4.33;4.33;;;;;14.68;73.68;100659.13;6120165;23;46402;-78
2024/02/21 13:02:46;;;;;;;;;9.33;8.00;;;;;14.44;77.73;100639.56;6096150;23;45929;-78
2024/02/21 13:05:12;;;;;;;;;9.00;8.67;;;;;14.50;74.97;100641.31;6220976;22;45368;-79
2024/02/21 13:07:37;;;;;;;;;8.33;8.00;;;;;14.51;75.55;100641.31;6272932;22;45461;-78
2024/02/21 13:10:05;;;;;;;;;8.00;8.00;;;;;14.52;75.77;100644.88;6277303;22;45370;-76
2024/02/21 13:12:30;;;;;;;;;9.00;8.67;;;;;14.28;76.40;100620.00;6274736;22;45281;-77